Medemborg — PJAG — position and weather

sailwx.info

Track history (hours):
 
Tides and Currents Weather Stations Pressure Air Temp Water Temp Dewpoint Dewpoint Depression Visibility Wind Speed Wind Dir Waves Ship Positions

Medemborg

Last reported at 2014-Oct-22 05:30 UTC. Time now 2014-Oct-23 11:50 UTC.
Position N 54°52' E 006°07'.

Length 135 m; draft 4.7 m.

Type: Cargo ship. MMSI: 306581000.

Date/timePositionNaut miles runAvg speedWind from/ knotsBaromVisibWave heightAir tempDewpointWater temp
2014-Oct-22 05:30N 54°52' E 006°07'1 1.2
2014-Oct-22 04:33N 54°52' E 006°09'2 1.7
2014-Oct-22 03:34N 54°52' E 006°12'2 1.6
2014-Oct-22 02:33N 54°52' E 006°15'2 1.6
2014-Oct-22 01:32N 54°52' E 006°18'22910.0
2014-Oct-21 02:29N 51°45' E 002°36'1314.3
2014-Oct-21 01:33N 51°34' E 002°22'1414.5
2014-Oct-21 00:33N 51°22' E 002°10'1514.6
2014-Oct-20 23:34N 51°11' E 001°55'9 8.7
2014-Oct-20 22:34N 51°03' E 001°50'10 9.6
2014-Oct-20 21:33N 51°03' E 002°05'10 9.8
2014-Oct-20 20:33N 51°03' E 002°21'2 2.2
2014-Oct-20 19:34N 51°03' E 002°17'0 0.2
2014-Oct-20 18:28N 51°03' E 002°17'0 0.0
2014-Oct-20 17:31N 51°03' E 002°17'0 0.0
2014-Oct-20 16:31N 51°03' E 002°17'0 0.0
2014-Oct-20 15:31N 51°03' E 002°17'0 0.0
2014-Oct-20 14:31N 51°03' E 002°17'0 0.0
2014-Oct-20 13:31N 51°03' E 002°17'0 0.0
2014-Oct-20 12:31N 51°03' E 002°17'0 0.0
2014-Oct-20 11:19N 51°03' E 002°17'0 0.0
2014-Oct-20 10:31N 51°03' E 002°17'0 0.0
2014-Oct-20 09:31N 51°03' E 002°17'0 0.0
2014-Oct-20 08:31N 51°03' E 002°17'0 0.0
2014-Oct-20 07:31N 51°03' E 002°17'0 0.0
2014-Oct-20 06:31N 51°03' E 002°17'0 0.0
2014-Oct-20 05:28N 51°03' E 002°17'0 0.0
2014-Oct-20 04:19N 51°03' E 002°17'0 0.0
2014-Oct-20 03:31N 51°03' E 002°17'0 0.0
2014-Oct-20 02:31N 51°03' E 002°17'0 0.0
2014-Oct-20 01:28N 51°03' E 002°17'0 0.0
2014-Oct-20 00:28N 51°03' E 002°17'0 0.0
2014-Oct-19 23:28N 51°03' E 002°17'0 0.0
2014-Oct-19 22:28N 51°03' E 002°17'0 0.0
2014-Oct-19 21:31N 51°03' E 002°17'0 0.0
2014-Oct-19 20:31N 51°03' E 002°17'0 0.0
2014-Oct-19 19:28N 51°03' E 002°17'0 0.0
2014-Oct-19 18:31N 51°03' E 002°17'0 0.0
2014-Oct-19 17:31N 51°03' E 002°17'0 0.0
2014-Oct-19 16:31N 51°03' E 002°17'0 0.0
2014-Oct-19 15:31N 51°03' E 002°17'0 0.0
2014-Oct-19 14:31N 51°03' E 002°17'0 0.0
2014-Oct-19 13:31N 51°03' E 002°17'0 0.0
2014-Oct-19 12:31N 51°03' E 002°17'0 0.0
2014-Oct-19 11:28N 51°03' E 002°17'0 0.0
2014-Oct-19 10:22N 51°03' E 002°17'0 0.0
2014-Oct-19 09:25N 51°03' E 002°17'2 1.8
2014-Oct-19 08:33N 51°03' E 002°20'4 4.0
2014-Oct-19 07:33N 51°04' E 002°13'1313.5
2014-Oct-19 06:34N 51°03' E 001°52'8 8.1
2014-Oct-19 05:34N 51°01' E 001°40'9 8.7
2014-Oct-19 04:34N 50°54' E 001°30'9 9.1
2014-Oct-19 03:34N 50°46' E 001°25'  
2014-Oct-15 15:32N 38°02' W 009°38'1212.1
2014-Oct-15 14:34N 37°51' W 009°35'1211.8
2014-Oct-15 13:33N 37°39' W 009°31'1212.0
2014-Oct-15 12:32N 37°27' W 009°28'6310.5
2014-Oct-15 06:30N 36°37' W 008°40'15811.3
2014-Oct-14 16:31N 35°59' W 005°29'7 7.5
2014-Oct-14 15:33N 35°58' W 005°20'3 2.6
2014-Oct-14 14:31N 35°55' W 005°20'0 0.0
2014-Oct-14 13:31N 35°55' W 005°20'0 0.0
2014-Oct-14 12:31N 35°55' W 005°20'0 0.0
2014-Oct-14 11:31N 35°55' W 005°20'0 0.0
2014-Oct-14 10:31N 35°55' W 005°20'0 0.0
2014-Oct-14 09:31N 35°55' W 005°20'0 0.0
2014-Oct-14 08:31N 35°55' W 005°20'0 0.0
2014-Oct-14 07:31N 35°55' W 005°20'0 0.0
2014-Oct-14 06:31N 35°55' W 005°20'0 0.0
2014-Oct-14 05:31N 35°55' W 005°20'0 0.0
2014-Oct-14 04:28N 35°55' W 005°20'0 0.0
2014-Oct-14 03:31N 35°55' W 005°20'0 0.0
2014-Oct-14 02:31N 35°55' W 005°20'0 0.0
2014-Oct-14 01:31N 35°55' W 005°20'0 0.1
2014-Oct-14 00:31N 35°55' W 005°20'0 0.1
2014-Oct-13 23:31N 35°55' W 005°20'0 0.1
2014-Oct-13 22:28N 35°55' W 005°20'0 0.1
2014-Oct-13 21:31N 35°55' W 005°20'0 0.1
2014-Oct-13 20:31N 35°55' W 005°20'0 0.0
2014-Oct-13 19:31N 35°55' W 005°20'0 0.0
2014-Oct-13 18:31N 35°55' W 005°20'0 0.0
2014-Oct-13 17:31N 35°55' W 005°20'0 0.0
2014-Oct-13 16:31N 35°55' W 005°20'0 0.1
2014-Oct-13 15:31N 35°55' W 005°20'0 0.0
2014-Oct-13 14:31N 35°55' W 005°20'0 0.0
2014-Oct-13 13:31N 35°55' W 005°20'1 1.4
2014-Oct-13 12:31N 35°54' W 005°19'0 0.0
2014-Oct-13 11:31N 35°54' W 005°19'0 0.0
2014-Oct-13 10:31N 35°54' W 005°19'0 0.0
2014-Oct-13 09:31N 35°54' W 005°19'0 0.0
2014-Oct-13 08:31N 35°54' W 005°19'0 0.0
2014-Oct-13 07:31N 35°54' W 005°19'1 0.8
2014-Oct-13 06:33N 35°54' W 005°18'  
Track history (hours):
 
Tides and Currents Weather Stations Pressure Air Temp Water Temp Dewpoint Dewpoint Depression Visibility Wind Speed Wind Dir Waves Ship Positions

Medemborg

Last reported at 2014-Oct-22 05:30 UTC. Time now 2014-Oct-23 11:50 UTC.
Position N 54°52' E 006°07'.

Length 135 m; draft 4.7 m.

Type: Cargo ship. MMSI: 306581000.

Date/timePositionNaut miles runAvg speedWind from/ knotsBaromVisibWave heightAir tempDewpointWater temp
2014-Oct-22 05:30N 54°52' E 006°07'1 1.2
2014-Oct-22 04:33N 54°52' E 006°09'2 1.7
2014-Oct-22 03:34N 54°52' E 006°12'2 1.6
2014-Oct-22 02:33N 54°52' E 006°15'2 1.6
2014-Oct-22 01:32N 54°52' E 006°18'22910.0
2014-Oct-21 02:29N 51°45' E 002°36'1314.3
2014-Oct-21 01:33N 51°34' E 002°22'1414.5
2014-Oct-21 00:33N 51°22' E 002°10'1514.6
2014-Oct-20 23:34N 51°11' E 001°55'9 8.7
2014-Oct-20 22:34N 51°03' E 001°50'10 9.6
2014-Oct-20 21:33N 51°03' E 002°05'10 9.8
2014-Oct-20 20:33N 51°03' E 002°21'2 2.2
2014-Oct-20 19:34N 51°03' E 002°17'0 0.2
2014-Oct-20 18:28N 51°03' E 002°17'0 0.0
2014-Oct-20 17:31N 51°03' E 002°17'0 0.0
2014-Oct-20 16:31N 51°03' E 002°17'0 0.0
2014-Oct-20 15:31N 51°03' E 002°17'0 0.0
2014-Oct-20 14:31N 51°03' E 002°17'0 0.0
2014-Oct-20 13:31N 51°03' E 002°17'0 0.0
2014-Oct-20 12:31N 51°03' E 002°17'0 0.0
2014-Oct-20 11:19N 51°03' E 002°17'0 0.0
2014-Oct-20 10:31N 51°03' E 002°17'0 0.0
2014-Oct-20 09:31N 51°03' E 002°17'0 0.0
2014-Oct-20 08:31N 51°03' E 002°17'0 0.0
2014-Oct-20 07:31N 51°03' E 002°17'0 0.0
2014-Oct-20 06:31N 51°03' E 002°17'0 0.0
2014-Oct-20 05:28N 51°03' E 002°17'0 0.0
2014-Oct-20 04:19N 51°03' E 002°17'0 0.0
2014-Oct-20 03:31N 51°03' E 002°17'0 0.0
2014-Oct-20 02:31N 51°03' E 002°17'0 0.0
2014-Oct-20 01:28N 51°03' E 002°17'0 0.0
2014-Oct-20 00:28N 51°03' E 002°17'0 0.0
2014-Oct-19 23:28N 51°03' E 002°17'0 0.0
2014-Oct-19 22:28N 51°03' E 002°17'0 0.0
2014-Oct-19 21:31N 51°03' E 002°17'0 0.0
2014-Oct-19 20:31N 51°03' E 002°17'0 0.0
2014-Oct-19 19:28N 51°03' E 002°17'0 0.0
2014-Oct-19 18:31N 51°03' E 002°17'0 0.0
2014-Oct-19 17:31N 51°03' E 002°17'0 0.0
2014-Oct-19 16:31N 51°03' E 002°17'0 0.0
2014-Oct-19 15:31N 51°03' E 002°17'0 0.0
2014-Oct-19 14:31N 51°03' E 002°17'0 0.0
2014-Oct-19 13:31N 51°03' E 002°17'0 0.0
2014-Oct-19 12:31N 51°03' E 002°17'0 0.0
2014-Oct-19 11:28N 51°03' E 002°17'0 0.0
2014-Oct-19 10:22N 51°03' E 002°17'0 0.0
2014-Oct-19 09:25N 51°03' E 002°17'2 1.8
2014-Oct-19 08:33N 51°03' E 002°20'4 4.0
2014-Oct-19 07:33N 51°04' E 002°13'1313.5
2014-Oct-19 06:34N 51°03' E 001°52'8 8.1
2014-Oct-19 05:34N 51°01' E 001°40'9 8.7
2014-Oct-19 04:34N 50°54' E 001°30'9 9.1
2014-Oct-19 03:34N 50°46' E 001°25'  
2014-Oct-15 15:32N 38°02' W 009°38'1212.1
2014-Oct-15 14:34N 37°51' W 009°35'1211.8
2014-Oct-15 13:33N 37°39' W 009°31'1212.0
2014-Oct-15 12:32N 37°27' W 009°28'6310.5
2014-Oct-15 06:30N 36°37' W 008°40'15811.3
2014-Oct-14 16:31N 35°59' W 005°29'7 7.5
2014-Oct-14 15:33N 35°58' W 005°20'3 2.6
2014-Oct-14 14:31N 35°55' W 005°20'0 0.0
2014-Oct-14 13:31N 35°55' W 005°20'0 0.0
2014-Oct-14 12:31N 35°55' W 005°20'0 0.0
2014-Oct-14 11:31N 35°55' W 005°20'0 0.0
2014-Oct-14 10:31N 35°55' W 005°20'0 0.0
2014-Oct-14 09:31N 35°55' W 005°20'0 0.0
2014-Oct-14 08:31N 35°55' W 005°20'0 0.0
2014-Oct-14 07:31N 35°55' W 005°20'0 0.0
2014-Oct-14 06:31N 35°55' W 005°20'0 0.0
2014-Oct-14 05:31N 35°55' W 005°20'0 0.0
2014-Oct-14 04:28N 35°55' W 005°20'0 0.0
2014-Oct-14 03:31N 35°55' W 005°20'0 0.0
2014-Oct-14 02:31N 35°55' W 005°20'0 0.0
2014-Oct-14 01:31N 35°55' W 005°20'0 0.1
2014-Oct-14 00:31N 35°55' W 005°20'0 0.1
2014-Oct-13 23:31N 35°55' W 005°20'0 0.1
2014-Oct-13 22:28N 35°55' W 005°20'0 0.1
2014-Oct-13 21:31N 35°55' W 005°20'0 0.1
2014-Oct-13 20:31N 35°55' W 005°20'0 0.0
2014-Oct-13 19:31N 35°55' W 005°20'0 0.0
2014-Oct-13 18:31N 35°55' W 005°20'0 0.0
2014-Oct-13 17:31N 35°55' W 005°20'0 0.0
2014-Oct-13 16:31N 35°55' W 005°20'0 0.1
2014-Oct-13 15:31N 35°55' W 005°20'0 0.0
2014-Oct-13 14:31N 35°55' W 005°20'0 0.0
2014-Oct-13 13:31N 35°55' W 005°20'1 1.4
2014-Oct-13 12:31N 35°54' W 005°19'0 0.0
2014-Oct-13 11:31N 35°54' W 005°19'0 0.0
2014-Oct-13 10:31N 35°54' W 005°19'0 0.0
2014-Oct-13 09:31N 35°54' W 005°19'0 0.0
2014-Oct-13 08:31N 35°54' W 005°19'0 0.0
2014-Oct-13 07:31N 35°54' W 005°19'1 0.8
2014-Oct-13 06:33N 35°54' W 005°18'  

Dump ship's entire track history